Antioch, Illinois
Current Conditions -  °F | °C
As of 7:53 PM on Friday 21 Nov 2014 (Local Time) from KENW Reporting Station
Clear Clear  
Wind Chill: -7°   Ceiling: Unl
Heat Index: -2°   Visibility: 10mi
Dew Point: -14°   Wind: 12mph
Humidity: 40%   Direction: 190°S
Pressure: 30.23"   Gusts: NA
Location:  42.48°N, 88.1°W
Report Text: KENW 220153Z 19010KT 10SM CLR M02/M14 A3023 RMK AO2 SLP251 T10171139
Loading
Personal Weather Stations






























Interactive Weather Map New forecast layout! Learn more

10-Day Weather Forecast

Advertisements
Track Severe Weather on mobile